Marshall, Missouri
Current Conditions -  °F | °C
As of 11:55 AM on Friday 28 Nov 2014 (Local Time) from KMHL Reporting Station
Clear Clear  
Wind Chill: 52°   Ceiling: Unl
Heat Index: 52°   Visibility: 10mi
Dew Point: 32°   Wind: 22mph
Humidity: 47%   Direction: 210°SSW
Pressure: 29.97"   Gusts: 28mph
Location:  39.12°N, 93.19°W
Report Text: KMHL 281755Z AUTO 21019G24KT 10SM CLR 11/00 A2997 RMK AO2
Loading
Personal Weather Stations






























Interactive Weather Map New forecast layout! Learn more

10-Day Weather Forecast

Advertisements
Track Severe Weather on mobile